createdAt,value
2018-11-23T00:00:26.962Z,4.96
2018-11-23T00:02:56.619Z,4.91
2018-11-23T00:05:25.308Z,4.82
2018-11-23T00:07:54.641Z,4.75
2018-11-23T00:10:24.582Z,4.69
2018-11-23T00:12:53.546Z,4.74
2018-11-23T00:15:23.279Z,4.71
2018-11-23T00:17:51.881Z,4.79
2018-11-23T00:20:21.890Z,4.81
2018-11-23T00:22:50.513Z,4.90
2018-11-23T00:25:20.395Z,5.00
2018-11-23T00:27:49.282Z,4.94
2018-11-23T00:30:19.926Z,4.95
2018-11-23T00:32:49.048Z,5.03
2018-11-23T00:35:20.354Z,4.99
2018-11-23T00:37:49.575Z,4.91
2018-11-23T00:40:19.939Z,4.78
2018-11-23T00:42:48.815Z,4.75
2018-11-23T00:45:17.475Z,4.83
2018-11-23T00:47:46.877Z,4.83
2018-11-23T00:50:16.875Z,4.73
2018-11-23T00:52:46.415Z,4.65
2018-11-23T00:55:16.323Z,4.52
2018-11-23T00:57:44.924Z,4.53
2018-11-23T01:00:18.435Z,4.59
2018-11-23T01:02:47.173Z,4.50
2018-11-23T01:05:17.129Z,4.53
2018-11-23T01:07:46.246Z,4.55
2018-11-23T01:10:16.305Z,4.55
2018-11-23T01:12:46.061Z,4.55
2018-11-23T01:15:14.881Z,4.50
2018-11-23T01:17:43.631Z,4.57
2018-11-23T01:20:16.623Z,4.64
2018-11-23T01:22:45.567Z,4.71
2018-11-23T01:25:15.503Z,4.69
2018-11-23T01:27:45.122Z,4.68
2018-11-23T01:30:21.081Z,4.60
2018-11-23T01:32:49.783Z,4.51
2018-11-23T01:35:18.435Z,4.51
2018-11-23T01:37:47.060Z,4.51
2018-11-23T01:40:18.180Z,4.40
2018-11-23T01:42:47.251Z,4.44
2018-11-23T01:45:16.190Z,4.45
2018-11-23T01:47:44.833Z,4.49
2018-11-23T01:50:17.635Z,4.52
2018-11-23T01:52:47.347Z,4.52
2018-11-23T01:55:17.132Z,4.51
2018-11-23T01:57:46.262Z,4.51
2018-11-23T02:00:17.101Z,4.56
2018-11-23T02:02:46.359Z,4.61
2018-11-23T02:05:14.957Z,4.66
2018-11-23T02:07:43.609Z,4.75
2018-11-23T02:10:13.598Z,4.79
2018-11-23T02:12:42.288Z,4.83
2018-11-23T02:15:16.628Z,4.84
2018-11-23T02:17:45.558Z,4.88
2018-11-23T02:20:15.432Z,4.84
2018-11-23T02:22:44.117Z,4.97
2018-11-23T02:25:12.806Z,4.93
2018-11-23T02:27:41.390Z,4.93
2018-11-23T02:30:13.493Z,4.91
2018-11-23T02:32:42.275Z,4.96
2018-11-23T02:35:10.998Z,5.06
2018-11-23T02:37:39.671Z,5.13
2018-11-23T02:40:09.378Z,5.07
2018-11-23T02:42:38.341Z,5.17
2018-11-23T02:45:10.174Z,5.14
2018-11-23T02:47:39.022Z,5.20
2018-11-23T02:50:07.820Z,5.28
2018-11-23T02:52:36.842Z,5.23
2018-11-23T02:55:06.120Z,5.24
2018-11-23T02:57:34.925Z,5.19
2018-11-23T03:00:07.128Z,5.20
2018-11-23T03:02:35.813Z,5.28
2018-11-23T03:05:04.990Z,5.27
2018-11-23T03:07:33.670Z,5.17
2018-11-23T03:10:02.319Z,5.14
2018-11-23T03:12:30.980Z,5.07
2018-11-23T03:14:59.546Z,5.15
2018-11-23T03:17:28.179Z,4.94
2018-11-23T03:19:56.972Z,5.01
2018-11-23T03:22:25.632Z,5.06
2018-11-23T03:24:54.330Z,5.09
2018-11-23T03:27:22.996Z,5.12
2018-11-23T03:29:51.548Z,5.09
2018-11-23T03:32:20.182Z,5.11
2018-11-23T03:34:49.809Z,5.10
2018-11-23T03:37:18.385Z,5.20
2018-11-23T03:39:46.968Z,5.19
2018-11-23T03:42:15.646Z,5.21
2018-11-23T03:44:44.322Z,5.17
2018-11-23T03:47:12.947Z,5.13
2018-11-23T03:49:41.521Z,5.09
2018-11-23T03:52:10.268Z,5.08
2018-11-23T03:54:38.890Z,5.00
2018-11-23T03:57:07.564Z,5.00
2018-11-23T03:59:36.151Z,4.90
2018-11-23T04:02:04.894Z,5.00
2018-11-23T04:04:33.543Z,5.01
2018-11-23T04:07:02.162Z,4.97
2018-11-23T04:09:30.785Z,4.99
2018-11-23T04:11:59.493Z,5.05
2018-11-23T04:14:29.248Z,5.18
2018-11-23T04:16:57.886Z,5.22
2018-11-23T04:19:26.748Z,5.00
2018-11-23T04:21:55.403Z,5.01
2018-11-23T04:24:24.063Z,5.12
2018-11-23T04:26:52.699Z,5.10
2018-11-23T04:29:21.422Z,5.11
2018-11-23T04:31:50.479Z,5.04
2018-11-23T04:34:19.137Z,5.08
2018-11-23T04:36:47.755Z,5.12
2018-11-23T04:39:16.425Z,5.24
2018-11-23T04:41:46.440Z,5.16
2018-11-23T04:44:13.868Z,5.17
2018-11-23T04:46:42.582Z,5.18
2018-11-23T04:49:11.229Z,5.20
2018-11-23T04:51:39.869Z,5.25
2018-11-23T04:54:08.621Z,5.19
2018-11-23T04:56:37.282Z,5.16
2018-11-23T04:59:06.567Z,5.18
2018-11-23T05:01:35.513Z,5.17
2018-11-23T05:04:04.309Z,5.26
2018-11-23T05:06:32.927Z,5.22
2018-11-23T05:09:01.734Z,5.21
2018-11-23T05:11:30.532Z,5.23
2018-11-23T05:13:59.270Z,5.12
2018-11-23T05:16:27.913Z,5.15
2018-11-23T05:18:56.544Z,5.13
2018-11-23T05:21:25.209Z,5.19
2018-11-23T05:23:53.861Z,5.12
2018-11-23T05:26:22.510Z,5.06
2018-11-23T05:28:51.258Z,5.10
2018-11-23T05:31:19.887Z,5.08
2018-11-23T05:33:48.608Z,5.20
2018-11-23T05:36:17.260Z,5.24
2018-11-23T05:38:45.948Z,5.28
2018-11-23T05:41:14.637Z,5.17
2018-11-23T05:43:43.361Z,5.18
2018-11-23T05:46:12.093Z,5.18
2018-11-23T05:48:40.796Z,5.19
2018-11-23T05:51:09.498Z,5.25
2018-11-23T05:53:38.177Z,5.31
2018-11-23T05:56:07.118Z,5.27
2018-11-23T05:58:35.819Z,5.25
2018-11-23T06:01:04.498Z,5.34
2018-11-23T06:03:33.182Z,5.37
2018-11-23T06:06:01.844Z,5.38
2018-11-23T06:08:30.471Z,5.30
2018-11-23T06:10:59.112Z,5.49
2018-11-23T06:13:27.803Z,5.36
2018-11-23T06:15:56.449Z,5.42
2018-11-23T06:18:25.091Z,5.36
2018-11-23T06:20:53.685Z,5.48
2018-11-23T06:23:22.389Z,5.48
2018-11-23T06:25:56.693Z,5.46
2018-11-23T06:28:25.324Z,5.50
2018-11-23T06:30:54.010Z,5.50
2018-11-23T06:33:32.524Z,5.52
2018-11-23T06:36:01.143Z,5.52
2018-11-23T06:38:29.898Z,5.58
2018-11-23T06:40:59.408Z,5.53
2018-11-23T06:43:27.669Z,5.63
2018-11-23T06:45:57.028Z,5.52
2018-11-23T06:48:25.664Z,5.50
2018-11-23T06:50:54.673Z,5.58
2018-11-23T06:53:23.435Z,5.67
2018-11-23T06:55:52.217Z,5.64
2018-11-23T06:58:20.929Z,5.63
2018-11-23T07:00:49.604Z,5.76
2018-11-23T07:03:18.284Z,5.79
2018-11-23T07:05:47.066Z,5.71
2018-11-23T07:08:15.708Z,5.71
2018-11-23T07:10:44.311Z,5.75
2018-11-23T07:13:12.985Z,5.86
2018-11-23T07:15:41.696Z,5.95
2018-11-23T07:18:10.396Z,6.01
2018-11-23T07:20:39.065Z,6.02
2018-11-23T07:23:07.896Z,5.99
2018-11-23T07:25:36.663Z,6.04
2018-11-23T07:28:05.529Z,6.07
2018-11-23T07:30:34.147Z,6.06
2018-11-23T07:33:02.764Z,6.09
2018-11-23T07:35:31.444Z,6.10
2018-11-23T07:38:00.984Z,6.11
2018-11-23T07:40:42.478Z,6.04
2018-11-23T07:43:11.367Z,6.14
2018-11-23T07:45:40.368Z,6.16
2018-11-23T07:48:09.352Z,6.23
2018-11-23T07:50:38.267Z,6.23
2018-11-23T07:53:07.282Z,6.23
2018-11-23T07:55:36.014Z,6.18
2018-11-23T07:58:05.174Z,6.29
2018-11-23T08:00:33.928Z,6.34
2018-11-23T08:03:02.591Z,6.30
2018-11-23T08:05:31.325Z,6.43
2018-11-23T08:07:59.952Z,6.44
2018-11-23T08:10:27.725Z,6.47
2018-11-23T08:12:56.370Z,6.42
2018-11-23T08:15:26.344Z,6.42
2018-11-23T08:17:55.020Z,6.49
2018-11-23T08:20:24.661Z,6.36
2018-11-23T08:22:53.336Z,6.38
2018-11-23T08:25:23.065Z,6.44
2018-11-23T08:27:52.865Z,6.50
2018-11-23T08:30:22.935Z,6.41
2018-11-23T08:32:51.719Z,6.56
2018-11-23T08:35:20.423Z,6.52
2018-11-23T08:37:49.121Z,6.58
2018-11-23T08:40:19.971Z,6.58
2018-11-23T08:42:49.324Z,6.59
2018-11-23T08:45:19.650Z,6.49
2018-11-23T08:47:48.257Z,6.64
2018-11-23T08:50:19.582Z,6.62
2018-11-23T08:52:48.200Z,6.67
2018-11-23T08:55:17.849Z,6.65
2018-11-23T08:57:46.489Z,6.71
2018-11-23T09:00:23.163Z,6.71
2018-11-23T09:02:53.103Z,6.79
2018-11-23T09:05:21.909Z,6.79
2018-11-23T09:07:51.798Z,6.78
2018-11-23T09:10:24.306Z,6.85
2018-11-23T09:12:54.768Z,6.97
2018-11-23T09:15:23.436Z,6.88
2018-11-23T09:17:52.144Z,6.95
2018-11-23T09:20:20.926Z,6.82
2018-11-23T09:22:50.089Z,6.94
2018-11-23T09:25:20.745Z,7.03
2018-11-23T09:27:49.475Z,7.03
2018-11-23T09:30:19.986Z,6.90
2018-11-23T09:32:49.450Z,6.96
2018-11-23T09:35:18.168Z,7.06
2018-11-23T09:37:47.316Z,7.14
2018-11-23T09:40:18.267Z,7.32
2018-11-23T09:42:46.907Z,7.33
2018-11-23T09:45:17.601Z,7.26
2018-11-23T09:47:47.035Z,7.28
2018-11-23T09:50:17.305Z,7.22
2018-11-23T09:52:46.957Z,7.26
2018-11-23T09:55:15.672Z,7.26
2018-11-23T09:57:44.341Z,7.25
2018-11-23T10:00:18.995Z,7.26
2018-11-23T10:02:48.525Z,7.18
2018-11-23T10:05:17.885Z,7.22
2018-11-23T10:07:48.010Z,7.17
2018-11-23T10:10:17.493Z,7.25
2018-11-23T10:12:46.203Z,7.34
2018-11-23T10:15:16.970Z,7.57
2018-11-23T10:17:45.731Z,7.48
2018-11-23T10:20:17.618Z,7.63
2018-11-23T10:22:46.495Z,7.74
2018-11-23T10:25:16.971Z,7.84
2018-11-23T10:27:45.995Z,7.97
2018-11-23T10:30:20.922Z,8.03
2018-11-23T10:32:50.736Z,7.82
2018-11-23T10:35:19.445Z,7.72
2018-11-23T10:37:49.468Z,7.64
2018-11-23T10:40:19.650Z,7.99
2018-11-23T10:42:48.356Z,8.03
2018-11-23T10:45:20.027Z,8.13
2018-11-23T10:47:49.472Z,8.19
2018-11-23T10:50:20.608Z,8.17
2018-11-23T10:52:49.485Z,7.92
2018-11-23T10:55:20.018Z,8.02
2018-11-23T10:57:48.741Z,8.09
2018-11-23T11:00:23.346Z,8.08
2018-11-23T11:02:58.464Z,8.21
2018-11-23T11:05:32.297Z,8.02
2018-11-23T11:08:02.448Z,7.84
2018-11-23T11:10:31.128Z,8.01
2018-11-23T11:12:59.840Z,8.15
2018-11-23T11:15:28.497Z,8.19
2018-11-23T11:17:57.147Z,8.33
2018-11-23T11:20:25.776Z,8.44
2018-11-23T11:22:54.429Z,8.41
2018-11-23T11:25:23.181Z,8.45
2018-11-23T11:27:51.918Z,8.44
2018-11-23T11:30:20.976Z,8.40
2018-11-23T11:32:50.140Z,8.39
2018-11-23T11:35:18.790Z,8.48
2018-11-23T11:37:47.484Z,8.55
2018-11-23T11:40:17.682Z,8.40
2018-11-23T11:42:46.458Z,8.46
2018-11-23T11:45:16.485Z,8.52
2018-11-23T11:47:45.664Z,8.57
2018-11-23T11:50:14.729Z,8.56
2018-11-23T11:52:44.804Z,8.54
2018-11-23T11:55:16.046Z,8.60
2018-11-23T11:57:45.325Z,8.52
2018-11-23T12:00:17.871Z,8.53
2018-11-23T12:02:46.838Z,8.49
2018-11-23T12:05:15.496Z,8.53
2018-11-23T12:07:44.104Z,8.63
2018-11-23T12:10:15.564Z,8.59
2018-11-23T12:12:44.197Z,8.64
2018-11-23T12:15:13.633Z,8.63
2018-11-23T12:17:42.545Z,8.60
2018-11-23T12:20:20.070Z,8.64
2018-11-23T12:22:48.773Z,8.57
2018-11-23T12:25:17.742Z,8.36
2018-11-23T12:27:46.342Z,8.39
2018-11-23T12:30:16.759Z,8.41
2018-11-23T12:32:46.334Z,8.50
2018-11-23T12:35:15.916Z,8.61
2018-11-23T12:37:44.575Z,8.56
2018-11-23T12:40:14.636Z,8.74
2018-11-23T12:42:43.912Z,8.74
2018-11-23T12:45:19.738Z,8.74
2018-11-23T12:47:48.405Z,8.72
2018-11-23T12:50:19.090Z,8.57
2018-11-23T12:52:47.795Z,8.48
2018-11-23T12:55:16.904Z,8.59
2018-11-23T12:57:45.531Z,8.64
2018-11-23T13:00:23.405Z,8.67
2018-11-23T13:02:53.679Z,8.60
2018-11-23T13:05:23.326Z,8.76
2018-11-23T13:07:52.749Z,8.73
2018-11-23T13:10:21.926Z,8.60
2018-11-23T13:12:51.089Z,8.78
2018-11-23T13:15:19.300Z,8.88
2018-11-23T13:17:47.983Z,8.87
2018-11-23T13:20:16.960Z,8.90
2018-11-23T13:22:45.715Z,8.86
2018-11-23T13:25:16.569Z,8.79
2018-11-23T13:27:45.266Z,9.00
2018-11-23T13:30:17.481Z,8.95
2018-11-23T13:32:46.206Z,8.94
2018-11-23T13:35:16.142Z,8.91
2018-11-23T13:37:44.775Z,9.03
2018-11-23T13:40:15.438Z,8.99
2018-11-23T13:42:44.402Z,8.96
2018-11-23T13:45:14.302Z,8.87
2018-11-23T13:47:43.071Z,8.85
2018-11-23T13:50:13.659Z,8.75
2018-11-23T13:52:43.573Z,8.76
2018-11-23T13:55:12.226Z,8.78
2018-11-23T13:57:40.863Z,8.75
2018-11-23T14:00:17.527Z,8.61
2018-11-23T14:02:46.703Z,8.52
2018-11-23T14:05:21.366Z,8.58
2018-11-23T14:07:51.326Z,8.45
2018-11-23T14:10:21.394Z,8.42
2018-11-23T14:12:50.159Z,8.38
2018-11-23T14:15:20.316Z,8.43
2018-11-23T14:17:49.810Z,8.48
2018-11-23T14:20:19.229Z,8.52
2018-11-23T14:22:48.007Z,8.44
2018-11-23T14:25:19.066Z,8.41
2018-11-23T14:27:48.176Z,8.49
2018-11-23T14:30:19.442Z,8.47
2018-11-23T14:32:48.282Z,8.47
2018-11-23T14:35:18.425Z,8.47
2018-11-23T14:37:47.824Z,8.38
2018-11-23T14:40:16.536Z,8.38
2018-11-23T14:42:46.139Z,8.39
2018-11-23T14:45:18.013Z,8.29
2018-11-23T14:47:47.200Z,8.30
2018-11-23T14:50:18.189Z,8.20
2018-11-23T14:52:48.194Z,8.11
2018-11-23T14:55:17.186Z,8.13
2018-11-23T14:57:46.439Z,8.07
2018-11-23T15:00:20.921Z,8.03
2018-11-23T15:02:50.840Z,8.09
2018-11-23T15:05:20.123Z,8.08
2018-11-23T15:07:48.953Z,7.95
2018-11-23T15:10:19.089Z,7.93
2018-11-23T15:12:48.988Z,7.92
2018-11-23T15:15:19.153Z,7.85
2018-11-23T15:17:48.789Z,7.88
2018-11-23T15:20:19.471Z,7.87
2018-11-23T15:22:49.754Z,7.86
2018-11-23T15:25:18.481Z,7.82
2018-11-23T15:27:47.363Z,7.78
2018-11-23T15:30:21.725Z,7.93
2018-11-23T15:32:50.369Z,7.80
2018-11-23T15:35:19.096Z,7.96
2018-11-23T15:37:47.723Z,7.90
2018-11-23T15:40:19.124Z,7.89
2018-11-23T15:42:48.830Z,7.89
2018-11-23T15:45:20.878Z,7.90
2018-11-23T15:47:49.514Z,7.96
2018-11-23T15:50:19.670Z,7.94
2018-11-23T15:52:48.579Z,7.92
2018-11-23T15:55:19.974Z,7.86
2018-11-23T15:57:49.441Z,7.94
2018-11-23T16:00:23.561Z,8.00
2018-11-23T16:02:52.354Z,7.97
2018-11-23T16:05:21.159Z,7.96
2018-11-23T16:07:50.156Z,8.00
2018-11-23T16:10:21.117Z,7.93
2018-11-23T16:12:52.240Z,8.01
2018-11-23T16:15:21.551Z,7.84
2018-11-23T16:17:50.878Z,7.77
2018-11-23T16:20:23.339Z,7.87
2018-11-23T16:22:53.399Z,7.97
2018-11-23T16:25:22.178Z,8.01
2018-11-23T16:27:54.211Z,8.08
2018-11-23T16:30:25.337Z,8.07
2018-11-23T16:32:55.224Z,8.00
2018-11-23T16:35:26.412Z,8.05
2018-11-23T16:37:56.039Z,7.99
2018-11-23T16:40:26.794Z,8.00
2018-11-23T16:42:56.536Z,7.99
2018-11-23T16:45:27.020Z,8.00
2018-11-23T16:47:56.916Z,8.00
2018-11-23T16:50:26.384Z,8.09
2018-11-23T16:52:55.658Z,8.08
2018-11-23T16:55:25.066Z,7.92
2018-11-23T16:57:56.737Z,7.65
2018-11-23T17:00:27.213Z,7.66
2018-11-23T17:02:57.375Z,7.62
2018-11-23T17:05:28.226Z,7.81
2018-11-23T17:07:57.147Z,7.62
2018-11-23T17:10:26.181Z,7.60
2018-11-23T17:12:55.064Z,7.84
2018-11-23T17:15:25.537Z,7.82
2018-11-23T17:17:54.457Z,7.83
2018-11-23T17:20:24.653Z,7.94
2018-11-23T17:22:54.797Z,7.94
2018-11-23T17:25:24.980Z,8.06
2018-11-23T17:27:54.648Z,8.06
2018-11-23T17:30:25.803Z,8.00
2018-11-23T17:32:55.088Z,7.95
2018-11-23T17:35:24.495Z,8.13
2018-11-23T17:37:53.518Z,8.23
2018-11-23T17:40:23.849Z,8.16
2018-11-23T17:42:52.982Z,8.05
2018-11-23T17:45:24.531Z,8.07
2018-11-23T17:47:54.155Z,8.14
2018-11-23T17:50:24.281Z,8.09
2018-11-23T17:52:53.406Z,8.11
2018-11-23T17:55:22.225Z,8.23
2018-11-23T17:57:52.129Z,8.14
2018-11-23T18:00:22.435Z,8.11
2018-11-23T18:02:52.346Z,7.95
2018-11-23T18:05:22.155Z,7.90
2018-11-23T18:07:51.514Z,7.92
2018-11-23T18:10:25.588Z,7.76
2018-11-23T18:12:55.821Z,7.75
2018-11-23T18:15:25.965Z,7.75
2018-11-23T18:17:55.993Z,7.64
2018-11-23T18:20:26.159Z,7.63
2018-11-23T18:27:43.107Z,7.50
2018-11-23T18:30:15.380Z,7.53
2018-11-23T18:32:44.387Z,7.49
2018-11-23T18:35:15.020Z,7.43
2018-11-23T18:37:43.986Z,7.50
2018-11-23T18:40:13.820Z,7.49
2018-11-23T18:42:43.178Z,7.47
2018-11-23T18:45:13.696Z,7.51
2018-11-23T18:47:43.613Z,7.47
2018-11-23T18:50:15.563Z,7.63
2018-11-23T18:52:44.884Z,7.59
2018-11-23T18:55:18.341Z,7.64
2018-11-23T18:57:43.852Z,7.57
2018-11-23T19:00:16.736Z,7.46
2018-11-23T19:02:47.823Z,7.54
2018-11-23T19:05:20.812Z,7.50
2018-11-23T19:07:49.823Z,7.48
2018-11-23T19:10:18.927Z,7.53
2018-11-23T19:12:47.991Z,7.49
2018-11-23T19:15:25.296Z,7.43
2018-11-23T19:17:47.625Z,7.58
2018-11-23T19:20:22.715Z,7.50
2018-11-23T19:22:53.902Z,7.43
2018-11-23T19:25:22.858Z,7.42
2018-11-23T19:27:51.933Z,7.42
2018-11-23T19:30:28.059Z,7.38
2018-11-23T19:32:51.307Z,7.35
2018-11-23T19:35:20.504Z,7.28
2018-11-23T19:37:49.609Z,7.39
2018-11-23T19:40:18.659Z,7.33
2018-11-23T19:42:47.834Z,7.29
2018-11-23T19:45:17.680Z,7.35
2018-11-23T19:47:47.340Z,7.40
2018-11-23T19:50:19.059Z,7.27
2018-11-23T19:52:48.466Z,7.40
2018-11-23T19:55:18.293Z,7.47
2018-11-23T19:57:47.546Z,7.48
2018-11-23T20:00:20.324Z,7.49
2018-11-23T20:02:49.507Z,7.31
2018-11-23T20:05:18.453Z,7.29
2018-11-23T20:07:48.897Z,7.28
2018-11-23T20:10:21.842Z,7.40
2018-11-23T20:12:55.365Z,7.34
2018-11-23T20:15:24.546Z,7.29
2018-11-23T20:17:53.729Z,7.29
2018-11-23T20:20:24.319Z,7.23
2018-11-23T20:22:53.451Z,7.27
2018-11-23T20:25:22.612Z,7.27
2018-11-23T20:27:52.632Z,7.19
2018-11-23T20:30:21.968Z,7.28
2018-11-23T20:32:51.566Z,7.27
2018-11-23T20:35:21.519Z,7.22
2018-11-23T20:37:50.555Z,7.24
2018-11-23T20:40:21.342Z,7.16
2018-11-23T20:42:50.383Z,7.13
2018-11-23T20:45:19.690Z,7.15
2018-11-23T20:47:48.448Z,7.19
2018-11-23T20:50:18.086Z,7.06
2018-11-23T20:52:47.166Z,7.13
2018-11-23T20:55:21.066Z,7.06
2018-11-23T20:57:49.877Z,7.22
2018-11-23T21:00:20.832Z,7.20
2018-11-23T21:02:51.525Z,7.24
2018-11-23T21:05:21.114Z,7.12
2018-11-23T21:07:49.791Z,6.99
2018-11-23T21:10:20.897Z,7.06
2018-11-23T21:12:49.806Z,6.99
2018-11-23T21:15:25.704Z,7.01
2018-11-23T21:17:54.378Z,7.04
2018-11-23T21:20:23.108Z,6.98
2018-11-23T21:22:51.799Z,6.96
2018-11-23T21:25:20.450Z,6.95
2018-11-23T21:27:49.471Z,6.86
2018-11-23T21:30:19.775Z,6.79
2018-11-23T21:32:48.996Z,6.63
2018-11-23T21:35:18.078Z,6.58
2018-11-23T21:37:47.719Z,6.55
2018-11-23T21:40:17.639Z,6.37
2018-11-23T21:42:46.680Z,6.31
2018-11-23T21:45:17.488Z,6.26
2018-11-23T21:47:46.601Z,6.27
2018-11-23T21:51:44.910Z,6.26
2018-11-23T21:54:14.126Z,6.10
2018-11-23T21:56:43.457Z,6.09
2018-11-23T21:59:12.758Z,6.16
2018-11-23T22:01:41.939Z,6.11
2018-11-23T22:04:11.389Z,5.95
2018-11-23T22:06:40.737Z,5.94
2018-11-23T22:09:09.822Z,5.80
2018-11-23T22:11:39.790Z,5.97
2018-11-23T22:14:09.029Z,5.89
2018-11-23T22:16:38.121Z,5.86
2018-11-23T22:19:07.279Z,5.77
2018-11-23T22:21:36.799Z,5.76
2018-11-23T22:24:06.248Z,5.75
2018-11-23T22:26:35.318Z,5.66
2018-11-23T22:29:04.540Z,5.62
2018-11-23T22:31:33.521Z,5.62
2018-11-23T22:34:02.533Z,5.48
2018-11-23T22:36:31.544Z,5.43
2018-11-23T22:39:01.040Z,5.38
2018-11-23T22:41:30.551Z,5.32
2018-11-23T22:44:00.428Z,5.34
2018-11-23T22:46:29.968Z,5.29
2018-11-23T22:49:00.095Z,5.20
2018-11-23T22:51:29.095Z,5.23
2018-11-23T22:53:59.083Z,5.25
2018-11-23T22:56:29.141Z,5.21
2018-11-23T22:58:59.252Z,5.27
2018-11-23T23:01:29.456Z,5.16
2018-11-23T23:03:59.393Z,5.12
2018-11-23T23:06:29.095Z,5.17
2018-11-23T23:08:59.208Z,5.19
2018-11-23T23:11:28.915Z,5.28
2018-11-23T23:13:58.836Z,5.22
2018-11-23T23:16:28.394Z,5.15
2018-11-23T23:18:57.445Z,5.28
2018-11-23T23:21:26.520Z,5.34
2018-11-23T23:23:55.837Z,5.24
2018-11-23T23:26:25.283Z,5.29
2018-11-23T23:28:56.643Z,5.18
2018-11-23T23:31:25.737Z,5.24
2018-11-23T23:33:54.825Z,5.26
2018-11-23T23:36:24.044Z,5.35
2018-11-23T23:38:53.060Z,5.27
2018-11-23T23:41:22.107Z,5.26
2018-11-23T23:43:51.155Z,5.34
2018-11-23T23:46:20.557Z,5.40
2018-11-23T23:48:49.765Z,5.42
2018-11-23T23:51:18.735Z,5.49
2018-11-23T23:53:47.731Z,5.48
2018-11-23T23:56:16.835Z,5.49
2018-11-23T23:58:46.184Z,5.42
